createdAt,value
2018-04-28T00:03:11.735Z,20.00
2018-04-28T00:05:39.088Z,20.00
2018-04-28T00:10:34.718Z,20.10
2018-04-28T00:13:02.879Z,20.10
2018-04-28T00:15:30.338Z,20.10
2018-04-28T00:17:57.687Z,20.10
2018-04-28T00:20:25.780Z,20.10
2018-04-28T00:22:53.103Z,19.90
2018-04-28T00:25:32.194Z,19.70
2018-04-28T00:30:31.327Z,19.70
2018-04-28T00:33:00.285Z,19.70
2018-04-28T00:35:32.407Z,19.70
2018-04-28T00:37:59.732Z,19.70
2018-04-28T00:40:35.841Z,19.50
2018-04-28T00:43:03.908Z,19.50
2018-04-28T00:45:34.138Z,19.40
2018-04-28T00:48:06.361Z,19.10
2018-04-28T00:50:35.443Z,19.00
2018-04-28T00:55:33.754Z,19.10
2018-04-28T01:03:51.387Z,19.20
2018-04-28T01:08:47.133Z,19.10
2018-04-28T01:13:49.760Z,19.10
2018-04-28T01:16:17.171Z,19.10
2018-04-28T01:21:16.494Z,19.10
2018-04-28T01:23:45.414Z,19.00
2018-04-28T01:29:29.166Z,18.90
2018-04-28T01:31:58.019Z,19.00
2018-04-28T01:34:29.268Z,19.00
2018-04-28T01:37:01.455Z,19.10
2018-04-28T01:39:34.433Z,19.10
2018-04-28T01:50:06.328Z,19.20
2018-04-28T01:52:45.074Z,19.20
2018-04-28T01:55:21.024Z,19.20
2018-04-28T01:57:50.889Z,19.30
2018-04-28T02:03:35.800Z,19.30
2018-04-28T02:06:08.073Z,19.40
2018-04-28T02:11:04.494Z,19.40
2018-04-28T02:16:06.606Z,19.50
2018-04-28T02:21:18.040Z,19.60
2018-04-28T02:26:15.451Z,19.60
2018-04-28T02:28:51.662Z,19.60
2018-04-28T02:33:52.948Z,19.50
2018-04-28T02:44:21.071Z,19.50
2018-04-28T02:49:50.739Z,19.20
2018-04-28T02:54:54.198Z,19.20
2018-04-28T02:57:22.292Z,19.20
2018-04-28T02:59:49.636Z,19.30
2018-04-28T03:02:32.826Z,19.30
2018-04-28T03:07:42.277Z,19.40
2018-04-28T03:10:12.456Z,19.40
2018-04-28T03:12:40.406Z,19.30
2018-04-28T03:17:37.132Z,19.40
2018-04-28T03:20:08.315Z,19.40
2018-04-28T03:22:36.312Z,19.30
2018-04-28T03:25:10.580Z,19.30
2018-04-28T03:30:36.340Z,19.20
2018-04-28T03:33:07.195Z,19.20
2018-04-28T03:35:53.948Z,19.20
2018-04-28T03:38:28.249Z,19.10
2018-04-28T03:40:55.491Z,19.20
2018-04-28T03:43:29.315Z,19.30
2018-04-28T03:46:06.470Z,19.30
2018-04-28T03:48:33.731Z,19.30
2018-04-28T03:51:22.544Z,19.30
2018-04-28T03:56:20.306Z,19.30
2018-04-28T03:59:00.464Z,19.30
2018-04-28T04:09:37.295Z,19.20
2018-04-28T04:14:48.927Z,19.10
2018-04-28T04:20:25.269Z,19.10
2018-04-28T04:25:43.381Z,19.20
2018-04-28T04:28:11.295Z,19.20
2018-04-28T04:30:48.359Z,19.10
2018-04-28T04:33:34.151Z,19.10
2018-04-28T04:39:11.085Z,19.00
2018-04-28T04:41:44.321Z,19.00
2018-04-28T04:44:16.423Z,18.90
2018-04-28T04:49:43.979Z,18.90
2018-04-28T05:00:49.181Z,18.90
2018-04-28T05:03:37.508Z,18.80
2018-04-28T05:09:31.151Z,18.70
2018-04-28T05:12:05.181Z,18.60
2018-04-28T05:14:39.090Z,18.60
2018-04-28T05:19:50.437Z,18.70
2018-04-28T05:22:29.931Z,18.70
2018-04-28T05:27:31.222Z,18.60
2018-04-28T05:32:50.026Z,18.80
2018-04-28T05:35:21.143Z,18.90
2018-04-28T05:41:06.240Z,19.00
2018-04-28T05:43:45.794Z,19.10
2018-04-28T05:48:54.610Z,19.20
2018-04-28T05:51:48.882Z,19.30
2018-04-28T05:54:38.316Z,19.40
2018-04-28T06:08:33.563Z,19.30
2018-04-28T06:11:14.044Z,19.20
2018-04-28T06:22:59.694Z,19.20
2018-04-28T06:27:55.454Z,19.40
2018-04-28T06:30:24.201Z,19.30
2018-04-28T06:32:51.561Z,19.40
2018-04-28T06:35:19.662Z,19.40
2018-04-28T06:37:47.711Z,19.40
2018-04-28T06:40:16.498Z,19.50
2018-04-28T06:42:43.725Z,19.60
2018-04-28T06:47:39.976Z,19.50
2018-04-28T06:50:07.321Z,19.30
2018-04-28T06:52:34.583Z,19.20
2018-04-28T06:55:01.807Z,19.20
2018-04-28T06:57:29.114Z,19.20
2018-04-28T06:59:57.148Z,19.20
2018-04-28T07:07:20.745Z,19.10
2018-04-28T07:09:48.306Z,19.10
2018-04-28T07:12:17.151Z,19.10
2018-04-28T07:17:13.302Z,19.10
2018-04-28T07:19:40.522Z,19.20
2018-04-28T07:22:08.626Z,19.20
2018-04-28T07:24:35.879Z,19.30
2018-04-28T07:29:31.683Z,19.30
2018-04-28T07:31:58.987Z,19.40
2018-04-28T07:34:26.255Z,19.40
2018-04-28T07:36:53.470Z,19.30
2018-04-28T07:39:21.641Z,19.30
2018-04-28T07:41:49.764Z,19.20
2018-04-28T07:46:45.323Z,19.50
2018-04-28T07:51:40.788Z,19.50
2018-04-28T07:56:36.246Z,20.90
2018-04-28T07:59:04.446Z,21.00
2018-04-28T08:04:00.819Z,20.90
2018-04-28T08:06:29.147Z,20.80
2018-04-28T08:11:25.963Z,20.60
2018-04-28T08:13:53.990Z,20.40
2018-04-28T08:16:22.008Z,20.30
2018-04-28T08:18:49.923Z,20.40
2018-04-28T08:23:46.082Z,20.50
2018-04-28T08:28:42.274Z,20.50
2018-04-28T08:31:10.349Z,20.40
2018-04-28T08:33:39.958Z,20.30
2018-04-28T08:36:07.202Z,20.20
2018-04-28T08:41:04.189Z,20.20
2018-04-28T08:43:31.396Z,20.10
2018-04-28T08:45:59.748Z,20.10
2018-04-28T08:48:27.238Z,20.00
2018-04-28T08:50:55.279Z,19.90
2018-04-28T08:53:23.252Z,19.90
2018-04-28T08:55:51.265Z,19.90
2018-04-28T08:58:18.607Z,20.00
2018-04-28T09:01:00.026Z,20.10
2018-04-28T09:08:24.474Z,20.20
2018-04-28T09:10:51.863Z,20.30
2018-04-28T09:13:19.326Z,20.20
2018-04-28T09:18:15.366Z,20.10
2018-04-28T09:20:44.588Z,20.00
2018-04-28T09:23:12.028Z,19.90
2018-04-28T09:25:40.148Z,19.90
2018-04-28T09:30:36.694Z,19.70
2018-04-28T09:33:06.117Z,19.60
2018-04-28T09:35:38.433Z,19.50
2018-04-28T09:40:36.132Z,19.50
2018-04-28T09:45:32.689Z,19.50
2018-04-28T09:52:56.703Z,19.80
2018-04-28T09:55:24.078Z,19.90
2018-04-28T09:58:04.611Z,19.90
2018-04-28T10:00:35.045Z,20.10
2018-04-28T10:03:04.395Z,20.30
2018-04-28T10:05:32.662Z,20.40
2018-04-28T10:08:00.797Z,20.40
2018-04-28T10:10:28.417Z,20.40
2018-04-28T10:12:56.852Z,20.30
2018-04-28T10:15:24.255Z,20.30
2018-04-28T10:17:51.615Z,20.20
2018-04-28T10:22:48.375Z,20.20
2018-04-28T10:25:16.495Z,20.40
2018-04-28T10:27:44.497Z,20.50
2018-04-28T10:30:12.686Z,20.60
2018-04-28T10:35:08.358Z,21.00
2018-04-28T10:37:36.560Z,21.10
2018-04-28T10:42:32.433Z,21.70
2018-04-28T10:47:28.381Z,22.30
2018-04-28T10:49:57.383Z,22.40
2018-04-28T10:52:24.850Z,22.30
2018-04-28T10:57:21.416Z,21.90
2018-04-28T10:59:49.022Z,21.80
2018-04-28T11:02:16.403Z,21.80
2018-04-28T11:04:44.590Z,21.90
2018-04-28T11:07:12.873Z,22.00
2018-04-28T11:09:40.384Z,22.20
2018-04-28T11:14:36.372Z,22.50
2018-04-28T11:19:33.054Z,22.70
2018-04-28T11:22:00.766Z,22.70
2018-04-28T11:24:28.218Z,22.60
2018-04-28T11:26:56.619Z,22.50
2018-04-28T11:29:24.895Z,22.50
2018-04-28T11:31:52.443Z,22.40
2018-04-28T11:34:19.905Z,22.50
2018-04-28T11:36:47.470Z,22.70
2018-04-28T11:41:43.276Z,23.10
2018-04-28T11:44:10.665Z,23.20
2018-04-28T11:46:38.858Z,23.30
2018-04-28T11:51:34.633Z,23.70
2018-04-28T11:58:58.977Z,24.30
2018-04-28T12:01:27.068Z,24.40
2018-04-28T12:03:54.463Z,24.50
2018-04-28T12:06:22.655Z,24.80
2018-04-28T12:08:50.070Z,25.00
2018-04-28T12:11:17.394Z,24.80
2018-04-28T12:13:44.761Z,24.70
2018-04-28T12:16:12.194Z,24.50
2018-04-28T12:18:40.299Z,24.40
2018-04-28T12:23:36.005Z,24.90
2018-04-28T12:26:04.115Z,25.70
2018-04-28T12:31:00.490Z,27.00
2018-04-28T12:33:28.576Z,27.40
2018-04-28T12:38:24.248Z,27.90
2018-04-28T12:40:52.413Z,28.60
2018-04-28T12:43:19.746Z,29.10
2018-04-28T12:45:47.781Z,29.30
2018-04-28T12:48:16.673Z,29.60
2018-04-28T12:50:44.098Z,30.10
2018-04-28T12:53:11.538Z,30.70
2018-04-28T12:58:07.152Z,31.30
2018-04-28T13:00:35.390Z,31.50
2018-04-28T13:03:02.799Z,31.50
2018-04-28T13:05:30.314Z,31.60
2018-04-28T13:07:57.704Z,31.60
2018-04-28T13:10:25.814Z,31.40
2018-04-28T13:12:53.919Z,31.30
2018-04-28T13:15:21.306Z,31.50
2018-04-28T13:17:49.386Z,31.50
2018-04-28T13:20:16.891Z,31.50
2018-04-28T13:22:45.063Z,31.50
2018-04-28T13:25:12.419Z,31.60
2018-04-28T13:27:40.652Z,31.70
2018-04-28T13:32:37.168Z,31.60
2018-04-28T13:35:04.570Z,31.60
2018-04-28T13:37:32.706Z,31.50
2018-04-28T13:40:00.050Z,31.50
2018-04-28T13:42:27.455Z,31.60
2018-04-28T13:47:25.222Z,31.10
2018-04-28T13:49:52.632Z,30.60
2018-04-28T13:52:20.081Z,30.60
2018-04-28T13:54:48.316Z,30.80
2018-04-28T13:57:15.674Z,31.00
2018-04-28T14:02:12.144Z,31.20
2018-04-28T14:04:39.552Z,31.20
2018-04-28T14:07:07.666Z,30.90
2018-04-28T14:12:04.326Z,30.70
2018-04-28T14:17:00.004Z,30.60
2018-04-28T14:21:55.788Z,30.10
2018-04-28T14:26:52.328Z,29.60
2018-04-28T14:29:20.453Z,29.60
2018-04-28T14:34:16.160Z,30.60
2018-04-28T14:39:12.416Z,30.70
2018-04-28T14:41:40.612Z,30.60
2018-04-28T14:44:08.005Z,30.60
2018-04-28T14:46:38.284Z,30.50
2018-04-28T14:49:06.283Z,30.30
2018-04-28T14:54:02.820Z,29.50
2018-04-28T14:56:30.258Z,29.40
2018-04-28T14:58:57.619Z,29.50
2018-04-28T15:03:54.077Z,29.20
2018-04-28T15:06:21.570Z,29.00
2018-04-28T15:08:49.753Z,28.80
2018-04-28T15:11:17.879Z,28.60
2018-04-28T15:13:45.274Z,28.70
2018-04-28T15:16:13.380Z,28.70
2018-04-28T15:21:09.138Z,28.60
2018-04-28T15:23:36.566Z,28.30
2018-04-28T15:26:03.948Z,28.10
2018-04-28T15:28:31.521Z,27.90
2018-04-28T15:30:58.829Z,27.70
2018-04-28T15:33:28.886Z,27.50
2018-04-28T15:38:27.687Z,27.50
2018-04-28T15:40:55.751Z,27.20
2018-04-28T15:43:23.125Z,27.10
2018-04-28T15:45:51.320Z,26.90
2018-04-28T15:50:47.186Z,26.30
2018-04-28T15:53:14.560Z,26.20
2018-04-28T15:55:41.913Z,26.10
2018-04-28T15:58:09.944Z,26.10
2018-04-28T16:00:37.371Z,26.00
2018-04-28T16:03:06.039Z,26.00
2018-04-28T16:05:33.423Z,25.90
2018-04-28T16:08:00.809Z,25.70
2018-04-28T16:10:28.272Z,25.50
2018-04-28T16:12:55.734Z,25.20
2018-04-28T16:15:23.211Z,25.20
2018-04-28T16:20:19.900Z,25.00
2018-04-28T16:22:48.083Z,24.90
2018-04-28T16:27:44.660Z,24.90
2018-04-28T16:32:40.524Z,24.80
2018-04-28T16:35:07.946Z,24.80
2018-04-28T16:37:35.427Z,24.70
2018-04-28T16:40:03.954Z,24.60
2018-04-28T16:42:32.130Z,24.50
2018-04-28T16:47:31.096Z,24.40
2018-04-28T16:49:58.550Z,24.40
2018-04-28T16:52:27.279Z,24.40
2018-04-28T16:54:55.523Z,24.30
2018-04-28T16:57:22.962Z,24.30
2018-04-28T16:59:50.399Z,24.30
2018-04-28T17:02:17.792Z,24.30
2018-04-28T17:04:45.951Z,24.30
2018-04-28T17:07:14.005Z,24.20
2018-04-28T17:12:10.698Z,24.10
2018-04-28T17:14:38.088Z,24.10
2018-04-28T17:17:06.315Z,24.00
2018-04-28T17:22:02.061Z,23.90
2018-04-28T17:26:58.626Z,23.70
2018-04-28T17:29:26.103Z,23.60
2018-04-28T17:31:54.481Z,23.60
2018-04-28T17:34:21.893Z,23.50
2018-04-28T17:36:49.398Z,23.50
2018-04-28T17:41:45.510Z,23.40
2018-04-28T17:46:41.353Z,23.30
2018-04-28T17:49:09.531Z,23.20
2018-04-28T17:54:05.413Z,23.00
2018-04-28T17:56:33.078Z,23.00
2018-04-28T17:59:01.202Z,23.00
2018-04-28T18:01:28.691Z,23.00
2018-04-28T18:03:56.808Z,22.90
2018-04-28T18:06:24.980Z,22.80
2018-04-28T18:11:20.807Z,22.70
2018-04-28T18:13:48.215Z,22.70
2018-04-28T18:16:15.634Z,22.70
2018-04-28T18:18:43.826Z,22.60
2018-04-28T18:23:39.550Z,22.60
2018-04-28T18:33:32.007Z,22.40
2018-04-28T18:35:59.512Z,22.40
2018-04-28T18:38:26.943Z,22.30
2018-04-28T18:40:54.342Z,22.30
2018-04-28T18:43:21.733Z,22.20
2018-04-28T18:48:17.482Z,22.20
2018-04-28T18:50:44.874Z,22.20
2018-04-28T18:53:12.304Z,22.20
2018-04-28T18:55:40.447Z,22.10
2018-04-28T18:58:08.594Z,22.10
2018-04-28T19:00:47.345Z,22.10
2018-04-28T19:03:21.018Z,22.10
2018-04-28T19:05:51.920Z,22.10
2018-04-28T19:08:23.535Z,22.10
2018-04-28T19:10:52.307Z,22.00
2018-04-28T19:13:28.129Z,22.00
2018-04-28T19:16:02.199Z,21.90
2018-04-28T19:18:29.579Z,21.90
2018-04-28T19:23:26.485Z,21.90
2018-04-28T19:25:54.578Z,21.90
2018-04-28T19:28:22.755Z,21.90
2018-04-28T19:30:52.230Z,21.90
2018-04-28T19:33:19.655Z,21.90
2018-04-28T19:35:49.045Z,21.90
2018-04-28T19:38:17.365Z,21.80
2018-04-28T19:40:47.337Z,21.80
2018-04-28T19:43:15.506Z,21.80
2018-04-28T19:45:44.531Z,21.70
2018-04-28T19:48:12.868Z,21.70
2018-04-28T19:50:43.021Z,21.70
2018-04-28T19:53:12.388Z,21.60
2018-04-28T19:55:43.324Z,21.60
2018-04-28T19:58:11.654Z,21.60
2018-04-28T20:00:39.087Z,21.50
2018-04-28T20:03:06.706Z,21.50
2018-04-28T20:13:00.277Z,21.30
2018-04-28T20:15:27.705Z,21.30
2018-04-28T20:17:56.064Z,21.30
2018-04-28T20:20:24.307Z,21.30
2018-04-28T20:23:03.942Z,21.30
2018-04-28T20:25:31.253Z,21.30
2018-04-28T20:27:59.480Z,21.20
2018-04-28T20:33:08.264Z,21.10
2018-04-28T20:35:39.510Z,21.00
2018-04-28T20:38:07.936Z,21.10
2018-04-28T20:40:36.320Z,21.00
2018-04-28T20:43:03.740Z,21.00
2018-04-28T20:45:33.055Z,20.90
2018-04-28T20:48:01.388Z,20.70
2018-04-28T20:50:32.256Z,20.60
2018-04-28T20:53:03.195Z,20.60
2018-04-28T20:55:30.635Z,20.70
2018-04-28T20:57:58.842Z,20.50
2018-04-28T21:00:26.410Z,20.50
2018-04-28T21:02:55.667Z,20.60
2018-04-28T21:05:23.895Z,20.60
2018-04-28T21:07:51.302Z,20.60
2018-04-28T21:10:18.699Z,20.70
2018-04-28T21:12:46.157Z,20.70
2018-04-28T21:15:13.596Z,20.60
2018-04-28T21:17:44.647Z,20.60
2018-04-28T21:22:48.175Z,20.40
2018-04-28T21:25:17.359Z,20.40
2018-04-28T21:27:50.991Z,20.40
2018-04-28T21:30:22.384Z,20.40
2018-04-28T21:32:49.844Z,20.30
2018-04-28T21:35:17.238Z,20.30
2018-04-28T21:37:44.741Z,20.10
2018-04-28T21:40:12.127Z,20.10
2018-04-28T21:42:41.429Z,20.00
2018-04-28T21:45:12.416Z,20.00
2018-04-28T21:47:40.696Z,19.90
2018-04-28T21:50:08.178Z,19.90
2018-04-28T21:52:36.403Z,19.90
2018-04-28T21:55:04.778Z,19.80
2018-04-28T21:57:33.091Z,19.70
2018-04-28T22:00:01.222Z,19.60
2018-04-28T22:02:28.672Z,19.60
2018-04-28T22:04:56.215Z,19.50
2018-04-28T22:07:23.598Z,19.50
2018-04-28T22:09:52.812Z,19.60
2018-04-28T22:12:21.330Z,19.60
2018-04-28T22:14:48.750Z,19.70
2018-04-28T22:17:16.975Z,19.70
2018-04-28T22:22:12.706Z,19.70
2018-04-28T22:24:41.179Z,19.60
2018-04-28T22:27:09.539Z,19.50
2018-04-28T22:29:37.032Z,19.40
2018-04-28T22:32:04.934Z,19.30
2018-04-28T22:34:32.343Z,19.40
2018-04-28T22:37:00.498Z,19.30
2018-04-28T22:39:27.900Z,19.30
2018-04-28T22:41:56.021Z,19.40
2018-04-28T22:44:23.398Z,19.40
2018-04-28T22:46:50.825Z,19.40
2018-04-28T22:49:18.386Z,19.40
2018-04-28T22:51:46.544Z,19.40
2018-04-28T22:54:13.887Z,19.50
2018-04-28T22:59:09.884Z,19.50
2018-04-28T23:01:37.324Z,19.20
2018-04-28T23:04:05.421Z,18.70
2018-04-28T23:06:33.557Z,18.60
2018-04-28T23:09:01.027Z,18.50
2018-04-28T23:11:29.112Z,18.30
2018-04-28T23:13:56.771Z,18.10
2018-04-28T23:16:24.838Z,18.20
2018-04-28T23:21:20.594Z,18.30
2018-04-28T23:23:47.983Z,18.20
2018-04-28T23:26:16.182Z,17.60
2018-04-28T23:31:11.885Z,17.10
2018-04-28T23:33:40.146Z,17.30
2018-04-28T23:36:07.512Z,17.80
2018-04-28T23:41:03.117Z,18.30
2018-04-28T23:45:58.807Z,18.20
2018-04-28T23:48:26.915Z,18.00
2018-04-28T23:50:54.377Z,18.00
2018-04-28T23:53:22.531Z,17.90
2018-04-28T23:55:49.884Z,18.00
